sensor_id;sensor_type;location;lat;lon;timestamp;P1;durP1;ratioP1;P2;durP2;ratioP2
79668;SDS011;69136;52.614;6.976;2023-07-22T00:01:42;7.38;;;4.00;;
79668;SDS011;69136;52.614;6.976;2023-07-22T00:04:26;7.97;;;3.80;;
79668;SDS011;69136;52.614;6.976;2023-07-22T00:07:11;7.18;;;3.45;;
79668;SDS011;69136;52.614;6.976;2023-07-22T00:09:54;7.22;;;3.20;;
79668;SDS011;69136;52.614;6.976;2023-07-22T00:12:38;6.53;;;3.55;;
79668;SDS011;69136;52.614;6.976;2023-07-22T00:15:22;9.50;;;4.20;;
79668;SDS011;69136;52.614;6.976;2023-07-22T00:18:07;6.60;;;3.47;;
79668;SDS011;69136;52.614;6.976;2023-07-22T00:20:51;6.88;;;3.42;;
79668;SDS011;69136;52.614;6.976;2023-07-22T00:23:35;9.23;;;4.57;;
79668;SDS011;69136;52.614;6.976;2023-07-22T00:26:19;9.65;;;4.10;;
79668;SDS011;69136;52.614;6.976;2023-07-22T00:29:03;8.48;;;4.50;;
79668;SDS011;69136;52.614;6.976;2023-07-22T00:31:48;8.65;;;4.30;;
79668;SDS011;69136;52.614;6.976;2023-07-22T00:34:33;7.95;;;4.20;;
79668;SDS011;69136;52.614;6.976;2023-07-22T00:37:17;9.55;;;4.05;;
79668;SDS011;69136;52.614;6.976;2023-07-22T00:40:01;8.75;;;4.57;;
79668;SDS011;69136;52.614;6.976;2023-07-22T00:42:50;9.57;;;4.30;;
79668;SDS011;69136;52.614;6.976;2023-07-22T00:45:34;11.63;;;4.35;;
79668;SDS011;69136;52.614;6.976;2023-07-22T00:48:17;8.25;;;4.38;;
79668;SDS011;69136;52.614;6.976;2023-07-22T00:51:02;9.88;;;4.82;;
79668;SDS011;69136;52.614;6.976;2023-07-22T00:53:46;9.45;;;4.43;;
79668;SDS011;69136;52.614;6.976;2023-07-22T00:56:31;9.57;;;4.38;;
79668;SDS011;69136;52.614;6.976;2023-07-22T00:59:17;8.57;;;4.72;;
79668;SDS011;69136;52.614;6.976;2023-07-22T01:02:01;8.90;;;5.07;;
79668;SDS011;69136;52.614;6.976;2023-07-22T01:04:45;9.88;;;4.63;;
79668;SDS011;69136;52.614;6.976;2023-07-22T01:07:30;10.77;;;3.95;;
79668;SDS011;69136;52.614;6.976;2023-07-22T01:10:14;10.70;;;5.00;;
79668;SDS011;69136;52.614;6.976;2023-07-22T01:12:58;8.57;;;4.25;;
79668;SDS011;69136;52.614;6.976;2023-07-22T01:15:43;10.32;;;4.45;;
79668;SDS011;69136;52.614;6.976;2023-07-22T01:18:27;6.78;;;3.70;;
79668;SDS011;69136;52.614;6.976;2023-07-22T01:21:11;7.65;;;4.22;;
79668;SDS011;69136;52.614;6.976;2023-07-22T01:23:56;7.85;;;4.88;;
79668;SDS011;69136;52.614;6.976;2023-07-22T01:26:40;9.40;;;4.32;;
79668;SDS011;69136;52.614;6.976;2023-07-22T01:29:25;8.43;;;4.25;;
79668;SDS011;69136;52.614;6.976;2023-07-22T01:32:09;7.85;;;4.25;;
79668;SDS011;69136;52.614;6.976;2023-07-22T01:34:53;8.55;;;3.95;;
79668;SDS011;69136;52.614;6.976;2023-07-22T01:37:37;9.75;;;4.65;;
79668;SDS011;69136;52.614;6.976;2023-07-22T01:40:20;8.45;;;5.35;;
79668;SDS011;69136;52.614;6.976;2023-07-22T01:43:07;9.48;;;4.55;;
79668;SDS011;69136;52.614;6.976;2023-07-22T01:45:51;9.68;;;4.70;;
79668;SDS011;69136;52.614;6.976;2023-07-22T01:48:37;9.68;;;4.15;;
79668;SDS011;69136;52.614;6.976;2023-07-22T01:51:21;8.18;;;4.40;;
79668;SDS011;69136;52.614;6.976;2023-07-22T01:54:06;7.57;;;3.97;;
79668;SDS011;69136;52.614;6.976;2023-07-22T01:56:50;10.02;;;4.90;;
79668;SDS011;69136;52.614;6.976;2023-07-22T01:59:35;8.52;;;4.95;;
79668;SDS011;69136;52.614;6.976;2023-07-22T02:02:19;8.40;;;4.68;;
79668;SDS011;69136;52.614;6.976;2023-07-22T02:05:04;8.93;;;4.57;;
79668;SDS011;69136;52.614;6.976;2023-07-22T02:07:48;10.00;;;4.57;;
79668;SDS011;69136;52.614;6.976;2023-07-22T02:10:32;8.15;;;4.05;;
79668;SDS011;69136;52.614;6.976;2023-07-22T02:13:16;8.95;;;5.18;;
79668;SDS011;69136;52.614;6.976;2023-07-22T02:16:00;9.55;;;4.78;;
79668;SDS011;69136;52.614;6.976;2023-07-22T02:18:45;8.25;;;4.38;;
79668;SDS011;69136;52.614;6.976;2023-07-22T02:21:29;8.50;;;4.57;;
79668;SDS011;69136;52.614;6.976;2023-07-22T02:24:14;7.95;;;4.30;;
79668;SDS011;69136;52.614;6.976;2023-07-22T02:26:58;10.02;;;5.32;;
79668;SDS011;69136;52.614;6.976;2023-07-22T02:29:43;8.80;;;4.43;;
79668;SDS011;69136;52.614;6.976;2023-07-22T02:32:27;10.75;;;4.75;;
79668;SDS011;69136;52.614;6.976;2023-07-22T02:35:11;8.88;;;5.53;;
79668;SDS011;69136;52.614;6.976;2023-07-22T02:37:55;10.77;;;6.05;;
79668;SDS011;69136;52.614;6.976;2023-07-22T02:40:40;12.18;;;5.47;;
79668;SDS011;69136;52.614;6.976;2023-07-22T02:43:24;11.52;;;5.95;;
79668;SDS011;69136;52.614;6.976;2023-07-22T02:46:08;10.23;;;4.80;;
79668;SDS011;69136;52.614;6.976;2023-07-22T02:48:52;8.55;;;4.60;;
79668;SDS011;69136;52.614;6.976;2023-07-22T02:51:36;8.68;;;5.03;;
79668;SDS011;69136;52.614;6.976;2023-07-22T02:54:21;13.85;;;5.55;;
79668;SDS011;69136;52.614;6.976;2023-07-22T02:57:05;7.75;;;4.70;;
79668;SDS011;69136;52.614;6.976;2023-07-22T02:59:49;9.10;;;4.70;;
79668;SDS011;69136;52.614;6.976;2023-07-22T03:02:34;12.20;;;5.65;;
79668;SDS011;69136;52.614;6.976;2023-07-22T03:05:24;7.80;;;4.43;;
79668;SDS011;69136;52.614;6.976;2023-07-22T03:08:09;10.77;;;5.72;;
79668;SDS011;69136;52.614;6.976;2023-07-22T03:10:53;11.57;;;5.40;;
79668;SDS011;69136;52.614;6.976;2023-07-22T03:13:37;9.65;;;5.47;;
79668;SDS011;69136;52.614;6.976;2023-07-22T03:16:21;12.43;;;6.00;;
79668;SDS011;69136;52.614;6.976;2023-07-22T03:19:05;11.60;;;5.72;;
79668;SDS011;69136;52.614;6.976;2023-07-22T03:21:50;12.70;;;6.20;;
79668;SDS011;69136;52.614;6.976;2023-07-22T03:24:34;11.15;;;5.10;;
79668;SDS011;69136;52.614;6.976;2023-07-22T03:27:18;12.55;;;5.90;;
79668;SDS011;69136;52.614;6.976;2023-07-22T03:30:03;9.45;;;4.72;;
79668;SDS011;69136;52.614;6.976;2023-07-22T03:32:51;10.50;;;5.15;;
79668;SDS011;69136;52.614;6.976;2023-07-22T03:35:35;8.75;;;4.55;;
79668;SDS011;69136;52.614;6.976;2023-07-22T03:38:20;10.27;;;5.03;;
79668;SDS011;69136;52.614;6.976;2023-07-22T03:41:04;12.23;;;6.38;;
79668;SDS011;69136;52.614;6.976;2023-07-22T03:43:49;11.18;;;5.50;;
79668;SDS011;69136;52.614;6.976;2023-07-22T03:46:33;8.73;;;4.63;;
79668;SDS011;69136;52.614;6.976;2023-07-22T03:49:17;12.45;;;5.72;;
79668;SDS011;69136;52.614;6.976;2023-07-22T03:52:02;10.98;;;5.22;;
79668;SDS011;69136;52.614;6.976;2023-07-22T03:54:46;10.00;;;5.43;;
79668;SDS011;69136;52.614;6.976;2023-07-22T03:57:30;12.70;;;6.43;;
79668;SDS011;69136;52.614;6.976;2023-07-22T04:00:14;13.05;;;5.53;;
79668;SDS011;69136;52.614;6.976;2023-07-22T04:02:58;10.68;;;5.30;;
79668;SDS011;69136;52.614;6.976;2023-07-22T04:05:43;10.80;;;5.07;;
79668;SDS011;69136;52.614;6.976;2023-07-22T04:08:27;11.32;;;5.80;;
79668;SDS011;69136;52.614;6.976;2023-07-22T04:11:11;9.60;;;4.82;;
79668;SDS011;69136;52.614;6.976;2023-07-22T04:13:55;10.82;;;5.70;;
79668;SDS011;69136;52.614;6.976;2023-07-22T04:16:39;10.55;;;5.75;;
79668;SDS011;69136;52.614;6.976;2023-07-22T04:19:24;11.88;;;6.47;;
79668;SDS011;69136;52.614;6.976;2023-07-22T04:22:08;11.13;;;5.85;;
79668;SDS011;69136;52.614;6.976;2023-07-22T04:24:52;14.43;;;5.63;;
79668;SDS011;69136;52.614;6.976;2023-07-22T04:27:38;10.95;;;6.30;;
79668;SDS011;69136;52.614;6.976;2023-07-22T04:30:22;12.38;;;5.93;;
79668;SDS011;69136;52.614;6.976;2023-07-22T04:33:06;11.70;;;6.07;;
79668;SDS011;69136;52.614;6.976;2023-07-22T04:35:55;12.45;;;5.78;;
79668;SDS011;69136;52.614;6.976;2023-07-22T04:38:41;11.65;;;5.70;;
79668;SDS011;69136;52.614;6.976;2023-07-22T04:41:25;11.10;;;5.82;;
79668;SDS011;69136;52.614;6.976;2023-07-22T04:44:09;11.25;;;6.32;;
79668;SDS011;69136;52.614;6.976;2023-07-22T04:46:53;13.48;;;6.05;;
79668;SDS011;69136;52.614;6.976;2023-07-22T04:49:38;9.65;;;5.97;;
79668;SDS011;69136;52.614;6.976;2023-07-22T04:52:22;12.32;;;5.97;;
79668;SDS011;69136;52.614;6.976;2023-07-22T04:55:06;12.52;;;6.45;;
79668;SDS011;69136;52.614;6.976;2023-07-22T04:57:52;8.23;;;5.40;;
79668;SDS011;69136;52.614;6.976;2023-07-22T05:00:37;12.68;;;6.70;;
79668;SDS011;69136;52.614;6.976;2023-07-22T05:03:21;11.10;;;6.47;;
79668;SDS011;69136;52.614;6.976;2023-07-22T05:06:07;10.90;;;5.85;;
79668;SDS011;69136;52.614;6.976;2023-07-22T05:08:52;12.45;;;6.70;;
79668;SDS011;69136;52.614;6.976;2023-07-22T05:11:36;14.35;;;7.13;;
79668;SDS011;69136;52.614;6.976;2023-07-22T05:14:20;11.93;;;6.10;;
79668;SDS011;69136;52.614;6.976;2023-07-22T05:17:04;11.20;;;5.85;;
79668;SDS011;69136;52.614;6.976;2023-07-22T05:19:48;13.45;;;7.40;;
79668;SDS011;69136;52.614;6.976;2023-07-22T05:22:33;13.85;;;6.82;;
79668;SDS011;69136;52.614;6.976;2023-07-22T05:25:16;12.38;;;6.47;;
79668;SDS011;69136;52.614;6.976;2023-07-22T05:28:00;12.50;;;6.43;;
79668;SDS011;69136;52.614;6.976;2023-07-22T05:30:45;14.30;;;7.03;;
79668;SDS011;69136;52.614;6.976;2023-07-22T05:33:29;13.20;;;7.25;;
79668;SDS011;69136;52.614;6.976;2023-07-22T05:36:13;12.40;;;6.53;;
79668;SDS011;69136;52.614;6.976;2023-07-22T05:38:57;10.82;;;5.63;;
79668;SDS011;69136;52.614;6.976;2023-07-22T05:41:41;13.70;;;6.80;;
79668;SDS011;69136;52.614;6.976;2023-07-22T05:44:25;13.27;;;7.05;;
79668;SDS011;69136;52.614;6.976;2023-07-22T05:47:09;16.10;;;7.78;;
79668;SDS011;69136;52.614;6.976;2023-07-22T05:49:53;14.95;;;8.55;;
79668;SDS011;69136;52.614;6.976;2023-07-22T05:52:37;15.20;;;8.43;;
79668;SDS011;69136;52.614;6.976;2023-07-22T05:55:21;14.05;;;7.70;;
79668;SDS011;69136;52.614;6.976;2023-07-22T05:58:05;13.65;;;7.45;;
79668;SDS011;69136;52.614;6.976;2023-07-22T06:00:49;15.80;;;9.15;;
79668;SDS011;69136;52.614;6.976;2023-07-22T06:03:35;13.43;;;7.40;;
79668;SDS011;69136;52.614;6.976;2023-07-22T06:06:19;16.95;;;8.73;;
79668;SDS011;69136;52.614;6.976;2023-07-22T06:09:03;17.75;;;9.27;;
79668;SDS011;69136;52.614;6.976;2023-07-22T06:11:48;17.55;;;9.07;;
79668;SDS011;69136;52.614;6.976;2023-07-22T06:14:32;13.65;;;6.68;;
79668;SDS011;69136;52.614;6.976;2023-07-22T06:17:16;19.58;;;8.90;;
79668;SDS011;69136;52.614;6.976;2023-07-22T06:20:00;13.57;;;7.43;;
79668;SDS011;69136;52.614;6.976;2023-07-22T06:22:44;16.20;;;7.80;;
79668;SDS011;69136;52.614;6.976;2023-07-22T06:25:28;16.77;;;9.18;;
79668;SDS011;69136;52.614;6.976;2023-07-22T06:28:12;14.82;;;7.65;;
79668;SDS011;69136;52.614;6.976;2023-07-22T06:30:56;16.27;;;9.05;;
79668;SDS011;69136;52.614;6.976;2023-07-22T06:33:41;17.95;;;9.23;;
79668;SDS011;69136;52.614;6.976;2023-07-22T06:36:25;16.75;;;8.23;;
79668;SDS011;69136;52.614;6.976;2023-07-22T06:39:09;19.45;;;9.68;;
79668;SDS011;69136;52.614;6.976;2023-07-22T06:41:53;14.63;;;8.18;;
79668;SDS011;69136;52.614;6.976;2023-07-22T06:44:37;21.38;;;10.15;;
79668;SDS011;69136;52.614;6.976;2023-07-22T06:47:22;18.33;;;8.45;;
79668;SDS011;69136;52.614;6.976;2023-07-22T06:50:06;20.17;;;9.65;;
79668;SDS011;69136;52.614;6.976;2023-07-22T06:52:50;16.08;;;8.95;;
79668;SDS011;69136;52.614;6.976;2023-07-22T06:55:35;18.73;;;9.48;;
79668;SDS011;69136;52.614;6.976;2023-07-22T07:01:23;22.27;;;10.43;;
79668;SDS011;69136;52.614;6.976;2023-07-22T07:04:07;16.92;;;9.32;;
79668;SDS011;69136;52.614;6.976;2023-07-22T07:06:53;19.95;;;10.25;;
79668;SDS011;69136;52.614;6.976;2023-07-22T07:09:38;19.95;;;9.73;;
79668;SDS011;69136;52.614;6.976;2023-07-22T07:12:22;18.73;;;9.77;;
79668;SDS011;69136;52.614;6.976;2023-07-22T07:15:12;19.88;;;10.15;;
79668;SDS011;69136;52.614;6.976;2023-07-22T07:18:05;23.70;;;11.48;;
79668;SDS011;69136;52.614;6.976;2023-07-22T07:20:57;22.77;;;11.63;;
79668;SDS011;69136;52.614;6.976;2023-07-22T07:23:41;22.30;;;10.98;;
79668;SDS011;69136;52.614;6.976;2023-07-22T07:26:30;22.88;;;11.55;;
79668;SDS011;69136;52.614;6.976;2023-07-22T07:29:14;26.23;;;13.55;;
79668;SDS011;69136;52.614;6.976;2023-07-22T07:32:01;27.13;;;13.30;;
79668;SDS011;69136;52.614;6.976;2023-07-22T07:34:46;24.23;;;12.50;;
79668;SDS011;69136;52.614;6.976;2023-07-22T07:37:31;22.50;;;11.48;;
79668;SDS011;69136;52.614;6.976;2023-07-22T07:40:21;21.77;;;12.02;;
79668;SDS011;69136;52.614;6.976;2023-07-22T07:43:06;21.88;;;11.25;;
79668;SDS011;69136;52.614;6.976;2023-07-22T07:45:50;23.52;;;11.77;;
79668;SDS011;69136;52.614;6.976;2023-07-22T07:49:09;21.90;;;12.05;;
79668;SDS011;69136;52.614;6.976;2023-07-22T07:51:54;21.58;;;11.40;;
79668;SDS011;69136;52.614;6.976;2023-07-22T07:54:38;22.90;;;12.18;;
79668;SDS011;69136;52.614;6.976;2023-07-22T07:57:23;19.88;;;11.50;;
79668;SDS011;69136;52.614;6.976;2023-07-22T08:00:10;16.95;;;9.98;;
79668;SDS011;69136;52.614;6.976;2023-07-22T08:02:58;18.00;;;9.35;;
79668;SDS011;69136;52.614;6.976;2023-07-22T08:05:42;16.70;;;9.45;;
79668;SDS011;69136;52.614;6.976;2023-07-22T08:08:29;16.45;;;8.57;;
79668;SDS011;69136;52.614;6.976;2023-07-22T08:11:14;14.35;;;7.90;;
79668;SDS011;69136;52.614;6.976;2023-07-22T08:13:59;16.50;;;7.90;;
79668;SDS011;69136;52.614;6.976;2023-07-22T08:16:42;13.45;;;6.95;;
79668;SDS011;69136;52.614;6.976;2023-07-22T08:19:26;12.88;;;7.25;;
79668;SDS011;69136;52.614;6.976;2023-07-22T08:22:11;15.73;;;7.47;;
79668;SDS011;69136;52.614;6.976;2023-07-22T08:24:55;13.30;;;7.07;;
79668;SDS011;69136;52.614;6.976;2023-07-22T08:27:39;13.25;;;6.57;;
79668;SDS011;69136;52.614;6.976;2023-07-22T08:30:24;12.40;;;7.32;;
79668;SDS011;69136;52.614;6.976;2023-07-22T08:33:10;12.95;;;7.20;;
79668;SDS011;69136;52.614;6.976;2023-07-22T08:35:55;13.68;;;8.50;;
79668;SDS011;69136;52.614;6.976;2023-07-22T08:38:39;14.43;;;7.05;;
79668;SDS011;69136;52.614;6.976;2023-07-22T08:41:24;13.35;;;8.07;;
79668;SDS011;69136;52.614;6.976;2023-07-22T08:44:09;13.68;;;7.50;;
79668;SDS011;69136;52.614;6.976;2023-07-22T08:46:55;15.20;;;7.70;;
79668;SDS011;69136;52.614;6.976;2023-07-22T08:49:46;12.48;;;6.63;;
79668;SDS011;69136;52.614;6.976;2023-07-22T08:52:34;13.60;;;6.88;;
79668;SDS011;69136;52.614;6.976;2023-07-22T08:55:19;11.98;;;6.35;;
79668;SDS011;69136;52.614;6.976;2023-07-22T08:58:03;11.23;;;5.65;;
79668;SDS011;69136;52.614;6.976;2023-07-22T09:00:47;14.32;;;7.00;;
79668;SDS011;69136;52.614;6.976;2023-07-22T09:03:32;17.50;;;7.20;;
79668;SDS011;69136;52.614;6.976;2023-07-22T09:06:16;13.77;;;6.30;;
79668;SDS011;69136;52.614;6.976;2023-07-22T09:09:00;12.40;;;5.82;;
79668;SDS011;69136;52.614;6.976;2023-07-22T09:11:44;10.32;;;6.10;;
79668;SDS011;69136;52.614;6.976;2023-07-22T09:14:29;10.55;;;5.93;;
79668;SDS011;69136;52.614;6.976;2023-07-22T09:17:14;11.32;;;5.57;;
79668;SDS011;69136;52.614;6.976;2023-07-22T09:19:59;7.57;;;4.72;;
79668;SDS011;69136;52.614;6.976;2023-07-22T09:22:43;8.15;;;4.68;;
79668;SDS011;69136;52.614;6.976;2023-07-22T09:25:28;7.78;;;4.78;;
79668;SDS011;69136;52.614;6.976;2023-07-22T09:28:13;7.63;;;4.90;;
79668;SDS011;69136;52.614;6.976;2023-07-22T09:31:01;9.77;;;5.50;;
79668;SDS011;69136;52.614;6.976;2023-07-22T09:33:46;9.32;;;5.50;;
79668;SDS011;69136;52.614;6.976;2023-07-22T09:36:32;11.38;;;5.78;;
79668;SDS011;69136;52.614;6.976;2023-07-22T09:39:35;7.85;;;4.97;;
79668;SDS011;69136;52.614;6.976;2023-07-22T09:42:25;9.40;;;5.82;;
79668;SDS011;69136;52.614;6.976;2023-07-22T09:48:28;9.20;;;5.45;;
79668;SDS011;69136;52.614;6.976;2023-07-22T09:51:13;8.93;;;4.97;;
79668;SDS011;69136;52.614;6.976;2023-07-22T09:54:02;9.05;;;5.95;;
79668;SDS011;69136;52.614;6.976;2023-07-22T09:56:48;10.43;;;6.10;;
79668;SDS011;69136;52.614;6.976;2023-07-22T09:59:33;10.88;;;6.95;;
79668;SDS011;69136;52.614;6.976;2023-07-22T10:02:18;9.38;;;6.40;;
79668;SDS011;69136;52.614;6.976;2023-07-22T10:05:03;9.68;;;6.47;;
79668;SDS011;69136;52.614;6.976;2023-07-22T10:07:48;9.70;;;6.50;;
79668;SDS011;69136;52.614;6.976;2023-07-22T10:10:35;10.57;;;6.82;;
79668;SDS011;69136;52.614;6.976;2023-07-22T10:13:21;11.40;;;8.02;;
79668;SDS011;69136;52.614;6.976;2023-07-22T10:16:06;11.85;;;7.32;;
79668;SDS011;69136;52.614;6.976;2023-07-22T10:18:51;11.70;;;6.90;;
79668;SDS011;69136;52.614;6.976;2023-07-22T10:21:35;12.98;;;7.55;;
79668;SDS011;69136;52.614;6.976;2023-07-22T10:24:20;9.38;;;6.18;;
79668;SDS011;69136;52.614;6.976;2023-07-22T10:27:05;7.47;;;5.65;;
79668;SDS011;69136;52.614;6.976;2023-07-22T10:29:50;13.30;;;6.15;;
79668;SDS011;69136;52.614;6.976;2023-07-22T10:32:40;9.23;;;5.45;;
79668;SDS011;69136;52.614;6.976;2023-07-22T10:38:17;8.70;;;5.50;;
79668;SDS011;69136;52.614;6.976;2023-07-22T10:41:04;14.48;;;6.82;;
79668;SDS011;69136;52.614;6.976;2023-07-22T10:43:56;9.85;;;5.82;;
79668;SDS011;69136;52.614;6.976;2023-07-22T10:46:41;9.80;;;5.72;;
79668;SDS011;69136;52.614;6.976;2023-07-22T10:49:43;8.55;;;4.93;;
79668;SDS011;69136;52.614;6.976;2023-07-22T10:52:39;7.95;;;5.13;;
79668;SDS011;69136;52.614;6.976;2023-07-22T10:55:31;8.52;;;4.68;;
79668;SDS011;69136;52.614;6.976;2023-07-22T10:58:15;10.23;;;4.82;;
79668;SDS011;69136;52.614;6.976;2023-07-22T11:07:05;8.93;;;4.68;;
79668;SDS011;69136;52.614;6.976;2023-07-22T11:09:49;7.35;;;4.10;;
79668;SDS011;69136;52.614;6.976;2023-07-22T11:12:34;6.20;;;4.03;;
79668;SDS011;69136;52.614;6.976;2023-07-22T11:15:18;9.10;;;4.68;;
79668;SDS011;69136;52.614;6.976;2023-07-22T11:18:02;7.80;;;4.63;;
79668;SDS011;69136;52.614;6.976;2023-07-22T11:20:46;6.88;;;4.72;;
79668;SDS011;69136;52.614;6.976;2023-07-22T11:23:33;7.30;;;4.80;;
79668;SDS011;69136;52.614;6.976;2023-07-22T11:26:18;9.88;;;5.18;;
79668;SDS011;69136;52.614;6.976;2023-07-22T11:29:04;7.97;;;4.45;;
79668;SDS011;69136;52.614;6.976;2023-07-22T11:31:49;8.00;;;4.32;;
79668;SDS011;69136;52.614;6.976;2023-07-22T11:34:35;7.72;;;4.95;;
79668;SDS011;69136;52.614;6.976;2023-07-22T11:37:24;8.32;;;5.03;;
79668;SDS011;69136;52.614;6.976;2023-07-22T11:40:11;7.85;;;5.13;;
79668;SDS011;69136;52.614;6.976;2023-07-22T11:42:55;7.90;;;4.82;;
79668;SDS011;69136;52.614;6.976;2023-07-22T11:45:40;7.55;;;4.50;;
79668;SDS011;69136;52.614;6.976;2023-07-22T11:48:25;7.75;;;4.10;;
79668;SDS011;69136;52.614;6.976;2023-07-22T11:51:09;6.57;;;4.07;;
79668;SDS011;69136;52.614;6.976;2023-07-22T11:53:54;8.27;;;4.70;;
79668;SDS011;69136;52.614;6.976;2023-07-22T11:56:38;8.55;;;4.75;;
79668;SDS011;69136;52.614;6.976;2023-07-22T11:59:33;6.97;;;3.97;;
79668;SDS011;69136;52.614;6.976;2023-07-22T12:02:21;7.80;;;4.30;;
79668;SDS011;69136;52.614;6.976;2023-07-22T12:05:07;7.13;;;4.05;;
79668;SDS011;69136;52.614;6.976;2023-07-22T12:07:51;6.75;;;4.35;;
79668;SDS011;69136;52.614;6.976;2023-07-22T12:10:35;6.18;;;4.38;;
79668;SDS011;69136;52.614;6.976;2023-07-22T12:13:19;7.07;;;4.35;;
79668;SDS011;69136;52.614;6.976;2023-07-22T12:16:04;10.80;;;5.43;;
79668;SDS011;69136;52.614;6.976;2023-07-22T12:18:49;7.63;;;5.38;;
79668;SDS011;69136;52.614;6.976;2023-07-22T12:21:33;8.18;;;5.85;;
79668;SDS011;69136;52.614;6.976;2023-07-22T12:24:18;9.65;;;6.35;;
79668;SDS011;69136;52.614;6.976;2023-07-22T12:27:02;9.40;;;6.88;;
79668;SDS011;69136;52.614;6.976;2023-07-22T12:29:46;9.93;;;6.95;;
79668;SDS011;69136;52.614;6.976;2023-07-22T12:32:30;11.48;;;7.28;;
79668;SDS011;69136;52.614;6.976;2023-07-22T12:35:14;10.30;;;7.22;;
79668;SDS011;69136;52.614;6.976;2023-07-22T12:37:58;12.13;;;7.68;;
79668;SDS011;69136;52.614;6.976;2023-07-22T12:40:43;16.23;;;8.30;;
79668;SDS011;69136;52.614;6.976;2023-07-22T12:43:27;12.23;;;8.57;;
79668;SDS011;69136;52.614;6.976;2023-07-22T12:46:12;11.73;;;8.27;;
79668;SDS011;69136;52.614;6.976;2023-07-22T12:49:03;14.52;;;9.55;;
79668;SDS011;69136;52.614;6.976;2023-07-22T12:52:01;12.05;;;8.77;;
79668;SDS011;69136;52.614;6.976;2023-07-22T13:08:45;10.35;;;7.50;;
79668;SDS011;69136;52.614;6.976;2023-07-22T13:12:03;10.70;;;8.00;;
79668;SDS011;69136;52.614;6.976;2023-07-22T13:17:37;10.95;;;7.50;;
79668;SDS011;69136;52.614;6.976;2023-07-22T13:20:22;11.63;;;8.07;;
79668;SDS011;69136;52.614;6.976;2023-07-22T13:23:06;12.48;;;8.95;;
79668;SDS011;69136;52.614;6.976;2023-07-22T13:25:51;12.18;;;8.98;;
79668;SDS011;69136;52.614;6.976;2023-07-22T13:28:37;11.85;;;8.27;;
79668;SDS011;69136;52.614;6.976;2023-07-22T13:31:22;12.55;;;8.20;;
79668;SDS011;69136;52.614;6.976;2023-07-22T13:34:12;9.07;;;7.32;;
79668;SDS011;69136;52.614;6.976;2023-07-22T13:36:59;11.82;;;8.82;;
79668;SDS011;69136;52.614;6.976;2023-07-22T13:39:50;10.35;;;7.55;;
79668;SDS011;69136;52.614;6.976;2023-07-22T13:42:35;8.65;;;7.43;;
79668;SDS011;69136;52.614;6.976;2023-07-22T13:45:20;12.27;;;8.35;;
79668;SDS011;69136;52.614;6.976;2023-07-22T13:51:43;8.23;;;7.25;;
79668;SDS011;69136;52.614;6.976;2023-07-22T13:54:38;9.07;;;7.00;;
79668;SDS011;69136;52.614;6.976;2023-07-22T14:02:50;10.07;;;7.70;;
79668;SDS011;69136;52.614;6.976;2023-07-22T14:05:45;9.23;;;6.88;;
79668;SDS011;69136;52.614;6.976;2023-07-22T14:08:31;9.32;;;6.90;;
79668;SDS011;69136;52.614;6.976;2023-07-22T14:11:15;9.38;;;7.30;;
79668;SDS011;69136;52.614;6.976;2023-07-22T14:14:01;9.20;;;6.28;;
79668;SDS011;69136;52.614;6.976;2023-07-22T14:16:46;8.95;;;7.25;;
79668;SDS011;69136;52.614;6.976;2023-07-22T14:19:31;9.35;;;7.00;;
79668;SDS011;69136;52.614;6.976;2023-07-22T14:22:15;9.35;;;6.45;;
79668;SDS011;69136;52.614;6.976;2023-07-22T14:25:19;8.27;;;6.82;;
79668;SDS011;69136;52.614;6.976;2023-07-22T14:28:03;9.88;;;7.03;;
79668;SDS011;69136;52.614;6.976;2023-07-22T14:30:48;10.68;;;7.18;;
79668;SDS011;69136;52.614;6.976;2023-07-22T14:33:32;10.02;;;8.02;;
79668;SDS011;69136;52.614;6.976;2023-07-22T14:39:03;10.55;;;7.20;;
79668;SDS011;69136;52.614;6.976;2023-07-22T14:41:48;10.25;;;7.22;;
79668;SDS011;69136;52.614;6.976;2023-07-22T14:44:34;11.98;;;8.27;;
79668;SDS011;69136;52.614;6.976;2023-07-22T14:47:18;10.07;;;7.57;;
79668;SDS011;69136;52.614;6.976;2023-07-22T14:50:02;10.38;;;7.35;;
79668;SDS011;69136;52.614;6.976;2023-07-22T14:52:48;9.10;;;6.57;;
79668;SDS011;69136;52.614;6.976;2023-07-22T14:55:32;10.30;;;6.53;;
79668;SDS011;69136;52.614;6.976;2023-07-22T14:58:16;10.40;;;6.72;;
79668;SDS011;69136;52.614;6.976;2023-07-22T15:01:00;9.82;;;6.65;;
79668;SDS011;69136;52.614;6.976;2023-07-22T15:03:44;9.38;;;6.35;;
79668;SDS011;69136;52.614;6.976;2023-07-22T15:06:29;9.10;;;6.40;;
79668;SDS011;69136;52.614;6.976;2023-07-22T15:09:15;9.35;;;6.85;;
79668;SDS011;69136;52.614;6.976;2023-07-22T15:11:59;8.57;;;6.90;;
79668;SDS011;69136;52.614;6.976;2023-07-22T15:14:43;10.85;;;6.53;;
79668;SDS011;69136;52.614;6.976;2023-07-22T15:17:27;8.55;;;6.25;;
79668;SDS011;69136;52.614;6.976;2023-07-22T15:20:14;10.20;;;7.32;;
79668;SDS011;69136;52.614;6.976;2023-07-22T15:22:58;11.02;;;7.25;;
79668;SDS011;69136;52.614;6.976;2023-07-22T15:25:42;9.70;;;6.57;;
79668;SDS011;69136;52.614;6.976;2023-07-22T15:28:26;7.47;;;6.43;;
79668;SDS011;69136;52.614;6.976;2023-07-22T15:31:11;9.18;;;6.57;;
79668;SDS011;69136;52.614;6.976;2023-07-22T15:33:54;7.88;;;6.05;;
79668;SDS011;69136;52.614;6.976;2023-07-22T15:36:38;7.22;;;5.57;;
79668;SDS011;69136;52.614;6.976;2023-07-22T15:39:22;10.88;;;7.85;;
79668;SDS011;69136;52.614;6.976;2023-07-22T15:42:06;9.73;;;6.97;;
79668;SDS011;69136;52.614;6.976;2023-07-22T15:44:50;8.40;;;6.53;;
79668;SDS011;69136;52.614;6.976;2023-07-22T15:47:35;10.40;;;6.57;;
79668;SDS011;69136;52.614;6.976;2023-07-22T15:50:19;10.40;;;7.63;;
79668;SDS011;69136;52.614;6.976;2023-07-22T15:53:03;9.55;;;7.28;;
79668;SDS011;69136;52.614;6.976;2023-07-22T15:55:47;9.55;;;7.18;;
79668;SDS011;69136;52.614;6.976;2023-07-22T15:58:31;9.75;;;6.72;;
79668;SDS011;69136;52.614;6.976;2023-07-22T16:01:15;10.48;;;7.80;;
79668;SDS011;69136;52.614;6.976;2023-07-22T16:03:59;8.93;;;6.40;;
79668;SDS011;69136;52.614;6.976;2023-07-22T16:06:43;8.63;;;6.07;;
79668;SDS011;69136;52.614;6.976;2023-07-22T16:09:27;8.55;;;6.38;;
79668;SDS011;69136;52.614;6.976;2023-07-22T16:12:11;10.15;;;6.30;;
79668;SDS011;69136;52.614;6.976;2023-07-22T16:14:55;8.40;;;6.20;;
79668;SDS011;69136;52.614;6.976;2023-07-22T16:17:40;10.82;;;6.95;;
79668;SDS011;69136;52.614;6.976;2023-07-22T16:20:23;9.00;;;6.22;;
79668;SDS011;69136;52.614;6.976;2023-07-22T16:23:08;9.25;;;6.72;;
79668;SDS011;69136;52.614;6.976;2023-07-22T16:25:52;8.02;;;5.45;;
79668;SDS011;69136;52.614;6.976;2023-07-22T16:28:36;7.90;;;5.90;;
79668;SDS011;69136;52.614;6.976;2023-07-22T16:31:20;8.75;;;6.80;;
79668;SDS011;69136;52.614;6.976;2023-07-22T16:34:04;9.18;;;6.15;;
79668;SDS011;69136;52.614;6.976;2023-07-22T16:36:48;11.02;;;6.75;;
79668;SDS011;69136;52.614;6.976;2023-07-22T16:39:32;10.75;;;6.40;;
79668;SDS011;69136;52.614;6.976;2023-07-22T16:42:16;6.88;;;5.70;;
79668;SDS011;69136;52.614;6.976;2023-07-22T16:45:00;10.10;;;6.88;;
79668;SDS011;69136;52.614;6.976;2023-07-22T16:47:45;10.13;;;8.15;;
79668;SDS011;69136;52.614;6.976;2023-07-22T16:50:29;9.63;;;6.60;;
79668;SDS011;69136;52.614;6.976;2023-07-22T16:53:13;10.48;;;6.82;;
79668;SDS011;69136;52.614;6.976;2023-07-22T16:55:57;8.27;;;6.00;;
79668;SDS011;69136;52.614;6.976;2023-07-22T16:58:41;9.88;;;6.53;;
79668;SDS011;69136;52.614;6.976;2023-07-22T17:01:25;8.38;;;5.70;;
79668;SDS011;69136;52.614;6.976;2023-07-22T17:04:09;10.98;;;6.75;;
79668;SDS011;69136;52.614;6.976;2023-07-22T17:06:54;10.63;;;7.68;;
79668;SDS011;69136;52.614;6.976;2023-07-22T17:09:38;9.65;;;7.07;;
79668;SDS011;69136;52.614;6.976;2023-07-22T17:12:23;11.15;;;7.55;;